Time;durP1;ratioP1;P1;durP2;ratioP2;P2;SDS_P1;SDS_P2;PMS_P1;PMS_P2;Temp;Humidity;BMP_temperature;BMP_pressure;BME280_temperature;BME280_humidity;BME280_pressure;Samples;Min_cycle;Max_cycle;Signal;HPM_P1;HPM_P2
2023/02/23 00:01:22;;;;;;;13.77;8.07;;;;;;;-11.53;69.14;144495.59;5077180;28;20059;-66
2023/02/23 00:03:49;;;;;;;14.90;8.40;;;;;;;-11.55;69.00;144490.56;5078693;28;20104;-66
2023/02/23 00:06:18;;;;;;;13.88;8.43;;;;;;;-11.57;67.81;144486.81;5073285;28;20021;-65
2023/02/23 00:08:46;;;;;;;13.32;8.80;;;;;;;-11.52;69.39;144498.09;5079282;28;20099;-67
2023/02/23 00:11:13;;;;;;;15.27;8.93;;;;;;;-11.66;69.09;144465.38;5077765;28;20030;-65
2023/02/23 00:13:40;;;;;;;13.73;8.98;;;;;;;-11.60;69.61;144477.97;5061380;28;20028;-65
2023/02/23 00:16:08;;;;;;;13.00;8.20;;;;;;;-11.72;68.61;144450.31;5078604;28;20059;-65
2023/02/23 00:18:43;;;;;;;12.70;8.13;;;;;;;-11.65;69.81;144466.66;5078285;28;20021;-65
2023/02/23 00:21:33;;;;;;;13.40;8.68;;;;;;;-11.59;69.39;144481.75;5078637;28;20032;-65
2023/02/23 00:24:04;;;;;;;12.05;7.85;;;;;;;-11.53;69.46;144495.59;5055778;28;20045;-65
2023/02/23 00:26:33;;;;;;;12.77;8.35;;;;;;;-11.67;68.61;144462.91;5078527;28;20032;-66
2023/02/23 00:29:00;;;;;;;14.98;8.35;;;;;;;-11.54;69.81;144494.34;5077444;28;20021;-63
2023/02/23 00:31:27;;;;;;;15.13;8.60;;;;;;;-11.59;69.50;144480.50;5073518;28;20036;-66
2023/02/23 00:33:59;;;;;;;13.80;8.68;;;;;;;-11.69;68.62;144456.59;5071581;28;20028;-65
2023/02/23 00:36:29;;;;;;;;;;;;;;;-11.56;69.67;144489.28;5059207;28;20235;-65
2023/02/23 00:38:59;;;;;;;14.00;8.52;;;;;;;-11.99;68.55;144384.94;5066230;28;19934;-65
2023/02/23 00:41:27;;;;;;;11.55;8.35;;;;;;;-11.77;69.57;144437.75;5076012;28;20309;-65
2023/02/23 00:43:54;;;;;;;14.07;8.70;;;;;;;-11.81;69.41;144428.94;5073222;28;20020;-65
2023/02/23 00:46:22;;;;;;;15.48;8.60;;;;;;;-11.81;70.01;144427.69;5075454;28;20044;-65
2023/02/23 00:48:50;;;;;;;13.48;8.50;;;;;;;-11.75;68.95;144442.75;5078109;28;20039;-65
2023/02/23 00:51:17;;;;;;;12.23;8.38;;;;;;;-11.95;68.87;144393.78;5078119;28;21534;-66
2023/02/23 00:53:44;;;;;;;13.18;8.45;;;;;;;-11.68;69.50;144460.38;5079725;28;20036;-64
2023/02/23 00:56:12;;;;;;;13.02;8.88;;;;;;;-11.67;68.42;144462.91;5076944;28;20063;-64
2023/02/23 00:58:38;;;;;;;13.57;8.18;;;;;;;-11.66;68.68;144464.13;5079702;28;20020;-65
2023/02/23 01:01:09;;;;;;;14.35;8.48;;;;;;;-11.75;68.50;144442.75;5081632;28;20356;-66
2023/02/23 01:03:35;;;;;;;15.88;8.70;;;;;;;-11.75;69.71;144442.75;5081269;28;20040;-65
2023/02/23 01:06:05;;;;;;;14.52;8.88;;;;;;;-11.93;69.44;144398.72;5082203;28;20050;-65
2023/02/23 01:08:35;;;;;;;12.27;8.73;;;;;;;-11.70;69.67;144454.06;5082117;28;20059;-64
2023/02/23 01:11:10;;;;;;;13.48;8.60;;;;;;;-12.00;70.37;144381.19;5081424;28;20039;-65
2023/02/23 01:13:36;;;;;;;15.35;8.77;;;;;;;-11.83;70.31;144422.63;5080184;28;20029;-65
2023/02/23 01:16:07;;;;;;;13.32;9.43;;;;;;;-11.85;69.45;144418.88;5081461;28;20020;-65
2023/02/23 01:18:33;;;;;;;15.35;9.45;;;;;;;-11.88;69.61;144411.31;5063449;28;20060;-65
2023/02/23 01:21:00;;;;;;;13.13;8.13;;;;;;;-11.75;69.25;144441.53;5082169;28;20036;-65
2023/02/23 01:23:25;;;;;;;17.65;9.02;;;;;;;-11.95;69.74;144393.78;5064228;28;20349;-66
2023/02/23 01:25:51;;;;;;;15.57;9.20;;;;;;;-11.87;69.32;144413.84;5081692;28;20020;-66
2023/02/23 01:28:16;;;;;;;15.38;9.30;;;;;;;-11.87;69.34;144413.84;5077070;28;20057;-65
2023/02/23 01:30:42;;;;;;;15.27;8.90;;;;;;;-11.91;68.91;144402.50;5077360;28;20024;-66
2023/02/23 01:33:08;;;;;;;13.50;9.25;;;;;;;-11.85;69.34;144418.88;5081672;28;20032;-65
2023/02/23 01:35:34;;;;;;;16.60;9.30;;;;;;;-11.93;69.66;144397.53;5082747;28;20107;-66
2023/02/23 01:37:59;;;;;;;15.68;9.00;;;;;;;-12.00;69.01;144382.47;5081558;28;20206;-64
2023/02/23 01:40:29;;;;;;;14.85;8.60;;;;;;;-11.82;69.20;144426.41;5082258;28;20109;-65
2023/02/23 01:43:12;;;;;;;16.27;9.07;;;;;;;-11.97;69.58;144388.72;5082600;28;20051;-65
2023/02/23 01:45:39;;;;;;;14.80;9.10;;;;;;;-11.87;69.91;144412.56;5046031;28;20051;-66
2023/02/23 01:48:36;;;;;;;13.55;8.60;;;;;;;-11.86;68.94;144415.09;5082117;28;20047;-64
2023/02/23 01:51:08;;;;;;;15.80;9.50;;;;;;;-12.03;70.05;144374.88;5070356;28;20035;-63
2023/02/23 01:53:38;;;;;;;15.57;8.75;;;;;;;-12.06;68.96;144366.09;5079857;28;20059;-66
2023/02/23 01:56:13;;;;;;;16.67;9.17;;;;;;;-12.03;70.02;144374.88;5079528;28;20028;-64
2023/02/23 01:58:43;;;;;;;18.02;9.68;;;;;;;-11.86;68.73;144416.34;5081650;28;20228;-66
2023/02/23 02:01:11;;;;;;;13.43;8.75;;;;;;;-12.03;70.20;144373.66;5081639;28;20030;-63
2023/02/23 02:03:45;;;;;;;18.48;10.63;;;;;;;-11.96;70.54;144390.00;5081965;28;20051;-66
2023/02/23 02:06:14;;;;;;;13.13;8.98;;;;;;;-12.05;70.62;144369.88;5059805;28;20308;-65
2023/02/23 02:08:45;;;;;;;14.20;8.35;;;;;;;-11.91;70.47;144402.50;5078036;28;20039;-66
2023/02/23 02:11:24;;;;;;;16.85;9.98;;;;;;;-11.95;69.67;144392.50;5080113;28;20059;-65
2023/02/23 02:13:57;;;;;;;13.95;9.05;;;;;;;-11.99;69.99;144383.72;5080211;28;20024;-65
2023/02/23 02:17:15;;;;;;;16.35;9.27;;;;;;;-11.90;69.72;144405.03;5081075;28;20033;-64
2023/02/23 02:20:27;;;;;;;16.95;9.48;;;;;;;-11.84;69.22;144420.09;5050822;28;20039;-65
2023/02/23 02:23:16;;;;;;;15.50;9.35;;;;;;;-11.91;69.63;144402.50;5076674;28;20339;-65
2023/02/23 02:26:04;;;;;;;14.43;9.18;;;;;;;-11.90;70.55;144406.28;5069426;28;20032;-65
2023/02/23 02:28:47;;;;;;;13.57;8.45;;;;;;;-11.82;70.16;144425.16;5078685;28;20024;-66
2023/02/23 02:31:37;;;;;;;15.68;9.48;;;;;;;-11.83;69.01;144422.63;5061454;28;20033;-65
2023/02/23 02:34:35;;;;;;;16.48;10.15;;;;;;;-11.79;70.40;144432.69;5077180;28;20344;-64
2023/02/23 02:37:15;;;;;;;16.35;9.45;;;;;;;-11.99;69.08;144383.72;5080721;28;20244;-66
2023/02/23 02:40:15;;;;;;;16.27;9.05;;;;;;;-11.99;69.27;144383.72;5079656;28;20084;-66
2023/02/23 02:43:13;;;;;;;16.67;9.43;;;;;;;-12.03;69.59;144374.88;5079571;28;20328;-65
2023/02/23 02:45:47;;;;;;;19.77;8.65;;;;;;;-12.15;69.23;144344.75;5056005;28;20023;-66
2023/02/23 02:48:19;;;;;;;15.43;8.80;;;;;;;-12.12;69.82;144351.03;5079431;28;20028;-65
2023/02/23 02:50:59;;;;;;;16.00;8.75;;;;;;;-12.16;69.62;144343.47;5081320;28;20221;-66
2023/02/23 02:53:53;;;;;;;17.17;9.40;;;;;;;-12.12;69.81;144352.28;5080433;28;20047;-66
2023/02/23 02:56:23;;;;;;;17.35;9.80;;;;;;;-12.21;70.58;144329.63;5079445;28;20218;-65
2023/02/23 02:58:50;;;;;;;13.60;9.07;;;;;;;-11.99;70.37;144383.72;5079561;28;20130;-67
2023/02/23 04:19:55;;;;;;;22.52;11.50;;;;;;;-12.70;69.44;144211.50;5078245;28;20033;-65
2023/02/23 04:22:22;;;;;;;19.55;10.90;;;;;;;-12.64;70.92;144224.06;5078602;28;20092;-64
2023/02/23 04:24:49;;;;;;;17.10;10.57;;;;;;;-12.54;70.90;144250.47;5077634;28;20352;-66
2023/02/23 04:27:15;;;;;;;17.45;10.45;;;;;;;-12.50;70.18;144259.25;5078159;28;20107;-63
2023/02/23 04:29:41;;;;;;;19.80;10.70;;;;;;;-12.61;71.03;144232.91;5079261;28;20024;-65
2023/02/23 04:32:11;;;;;;;18.58;10.27;;;;;;;-12.77;70.86;144193.91;5077750;28;20020;-64
2023/02/23 04:34:36;;;;;;;21.23;11.32;;;;;;;-12.62;70.50;144229.13;5081494;28;20083;-65
2023/02/23 04:37:02;;;;;;;19.75;11.10;;;;;;;-12.62;69.97;144229.13;5081739;28;20051;-65
2023/02/23 04:39:28;;;;;;;19.65;10.82;;;;;;;-12.57;70.14;144241.66;5081944;28;20048;-65
2023/02/23 04:41:53;;;;;;;19.33;10.73;;;;;;;-12.59;70.20;144236.66;5083757;28;20082;-65
2023/02/23 04:44:19;;;;;;;21.35;11.65;;;;;;;-12.77;70.42;144193.91;5080797;28;20364;-66
2023/02/23 04:46:45;;;;;;;23.33;12.77;;;;;;;-12.63;70.85;144226.59;5082642;28;20036;-66
2023/02/23 04:49:11;;;;;;;16.20;10.82;;;;;;;-12.74;70.11;144201.50;5082809;28;20039;-65
2023/02/23 04:51:36;;;;;;;17.23;10.98;;;;;;;-12.72;70.48;144205.25;5081784;28;20389;-66
2023/02/23 04:54:03;;;;;;;20.23;11.52;;;;;;;-12.59;70.23;144237.91;5082647;28;20041;-65
2023/02/23 04:56:29;;;;;;;17.05;10.85;;;;;;;-12.53;69.92;144251.72;5082440;28;20016;-66
2023/02/23 04:58:55;;;;;;;17.80;10.98;;;;;;;-12.42;69.87;144279.38;5081425;28;20356;-65
2023/02/23 05:01:21;;;;;;;17.80;11.70;;;;;;;-12.54;69.86;144250.47;5077202;28;20081;-65
2023/02/23 05:03:50;;;;;;;15.65;10.60;;;;;;;-12.70;70.34;144211.50;5081995;28;20020;-66
2023/02/23 05:06:16;;;;;;;16.90;11.32;;;;;;;-12.47;69.48;144265.56;5081587;28;20212;-67
2023/02/23 05:08:42;;;;;;;16.45;10.80;;;;;;;-12.45;69.31;144271.84;5082627;28;20048;-67
2023/02/23 05:11:09;;;;;;;15.30;10.13;;;;;;;-12.46;69.25;144269.31;5080905;28;20224;-65
2023/02/23 05:13:34;;;;;;;16.17;10.32;;;;;;;-12.45;68.92;144270.56;5081627;28;20047;-66
2023/02/23 05:16:00;;;;;;;18.08;10.93;;;;;;;-12.53;69.38;144252.97;5082074;28;20293;-64
2023/02/23 05:18:26;;;;;;;18.67;11.40;;;;;;;-12.59;70.07;144236.66;5081128;28;20065;-66
2023/02/23 05:20:52;;;;;;;19.25;10.80;;;;;;;-12.33;69.91;144301.97;5082638;28;20028;-65
2023/02/23 05:23:20;;;;;;;14.57;10.13;;;;;;;-12.29;69.48;144309.56;5080752;28;20132;-66
2023/02/23 05:25:46;;;;;;;15.88;10.48;;;;;;;-12.27;69.11;144314.56;5075034;28;20023;-66
2023/02/23 05:28:12;;;;;;;18.30;11.48;;;;;;;-12.19;68.67;144334.69;5062804;28;20075;-65
2023/02/23 05:30:37;;;;;;;15.73;10.07;;;;;;;-12.23;68.43;144325.88;5081425;28;20024;-67
2023/02/23 05:33:03;;;;;;;18.38;10.95;;;;;;;-12.20;68.04;144332.16;5081104;28;20032;-65
2023/02/23 05:35:28;;;;;;;17.05;10.35;;;;;;;-12.16;68.22;144342.22;5081678;28;20333;-67
2023/02/23 05:37:54;;;;;;;19.30;10.40;;;;;;;-12.15;68.18;144344.75;5080871;28;20043;-66
2023/02/23 05:40:20;;;;;;;17.55;10.50;;;;;;;-12.34;68.51;144298.22;5079259;28;20032;-67
2023/02/23 05:42:45;;;;;;;17.17;10.50;;;;;;;-12.43;68.22;144276.84;5080148;28;20020;-67
2023/02/23 05:45:11;;;;;;;16.88;10.45;;;;;;;-12.28;68.56;144312.03;5061346;28;20087;-65
2023/02/23 05:47:37;;;;;;;16.42;10.27;;;;;;;-12.56;68.24;144245.44;5079810;28;20040;-67
2023/02/23 05:50:07;;;;;;;17.83;11.35;;;;;;;-12.17;68.88;144339.69;5080664;28;20024;-67
2023/02/23 05:52:36;;;;;;;18.63;10.88;;;;;;;-12.24;67.99;144322.09;5074614;28;20028;-65
2023/02/23 05:55:03;;;;;;;18.83;9.93;;;;;;;-12.08;68.06;144361.06;5073614;28;20584;-67
2023/02/23 05:57:29;;;;;;;16.52;10.27;;;;;;;-12.16;68.39;144342.22;5070866;28;20036;-68
2023/02/23 05:59:54;;;;;;;16.50;9.98;;;;;;;-12.13;68.06;144348.50;5058440;28;20031;-68
2023/02/23 06:02:21;;;;;;;16.15;10.25;;;;;;;-12.18;67.35;144338.44;5072520;28;20029;-65
2023/02/23 06:04:46;;;;;;;15.93;10.63;;;;;;;-11.91;67.73;144402.50;5078155;28;20084;-65
2023/02/23 06:07:13;;;;;;;15.57;10.45;;;;;;;-12.04;67.35;144371.13;5074373;28;20101;-67
2023/02/23 06:09:38;;;;;;;16.08;10.07;;;;;;;-12.20;68.19;144333.44;5080246;28;20040;-68
2023/02/23 06:12:04;;;;;;;15.90;10.18;;;;;;;-12.05;68.49;144368.63;5080494;28;20039;-67
2023/02/23 06:14:29;;;;;;;17.17;10.77;;;;;;;-12.00;67.94;144382.47;5074926;28;20029;-68
2023/02/23 06:16:55;;;;;;;16.88;9.88;;;;;;;-12.23;68.21;144325.88;5080322;28;20194;-67
2023/02/23 06:19:21;;;;;;;16.13;9.93;;;;;;;-12.11;67.92;144353.53;5079262;28;20063;-68
2023/02/23 06:21:46;;;;;;;15.48;9.60;;;;;;;-12.15;67.96;144344.75;5074013;28;20071;-64
2023/02/23 06:24:12;;;;;;;15.98;10.23;;;;;;;-11.99;68.58;144383.72;5081130;28;20051;-64
2023/02/23 06:26:37;;;;;;;18.10;11.45;;;;;;;-12.33;68.78;144300.75;5080097;28;20100;-66
2023/02/23 06:29:03;;;;;;;16.33;10.95;;;;;;;-11.99;68.09;144384.94;5079700;28;20100;-65
2023/02/23 06:31:29;;;;;;;18.33;11.07;;;;;;;-11.86;68.06;144415.09;5079693;28;20096;-65
2023/02/23 06:33:55;;;;;;;16.90;10.65;;;;;;;-11.78;67.14;144433.94;5075906;28;20032;-66
2023/02/23 06:36:20;;;;;;;14.02;9.75;;;;;;;-11.78;67.70;144433.94;5078232;28;20033;-64
2023/02/23 06:38:46;;;;;;;16.42;9.68;;;;;;;-11.58;67.84;144484.28;5076942;28;20024;-65
2023/02/23 06:41:11;;;;;;;17.17;9.82;;;;;;;-11.51;68.04;144500.63;5078880;28;20427;-65
2023/02/23 06:43:37;;;;;;;17.45;10.52;;;;;;;-11.48;68.40;144508.19;5075677;28;20020;-64
2023/02/23 06:46:03;;;;;;;15.98;10.30;;;;;;;-11.60;68.39;144477.97;5079385;28;20040;-65
2023/02/23 06:48:29;;;;;;;19.80;10.93;;;;;;;-11.40;67.14;144528.31;5079689;28;20059;-65
2023/02/23 06:50:58;;;;;;;14.88;10.38;;;;;;;-11.38;67.13;144533.34;5081478;28;20079;-65
2023/02/23 06:53:24;;;;;;;18.77;10.20;;;;;;;-11.08;67.39;144605.06;5080679;28;20017;-66
2023/02/23 06:55:49;;;;;;;15.50;10.57;;;;;;;-11.07;67.85;144608.84;5079089;28;20012;-65
2023/02/23 06:58:16;;;;;;;16.63;10.35;;;;;;;-11.00;65.75;144626.44;5078251;28;20043;-67
2023/02/23 07:00:42;;;;;;;18.33;10.00;;;;;;;-11.01;68.31;144623.94;5065234;28;20034;-66
2023/02/23 07:03:10;;;;;;;16.83;10.23;;;;;;;-11.11;68.33;144598.78;5079832;28;20072;-66
2023/02/23 07:05:35;;;;;;;17.23;10.30;;;;;;;-10.84;67.03;144665.47;5077964;28;20066;-66
2023/02/23 07:08:02;;;;;;;19.77;10.90;;;;;;;-10.73;67.73;144691.88;5076129;28;20245;-68
2023/02/23 07:10:28;;;;;;;17.08;9.82;;;;;;;-10.72;67.51;144693.16;5079139;28;20362;-66
2023/02/23 07:12:53;;;;;;;18.40;9.60;;;;;;;-10.80;68.23;144675.53;5078615;28;20025;-67
2023/02/23 07:15:19;;;;;;;17.58;10.50;;;;;;;-10.61;67.87;144720.84;5076308;28;20077;-66
2023/02/23 07:17:47;;;;;;;20.40;10.30;;;;;;;-10.53;66.34;144739.72;5080693;28;20100;-66
2023/02/23 07:20:14;;;;;;;16.75;9.50;;;;;;;-10.43;67.95;144766.19;5061078;28;20218;-66
2023/02/23 07:22:40;;;;;;;17.38;9.38;;;;;;;-10.44;66.94;144762.41;5079316;28;20024;-67
2023/02/23 07:25:07;;;;;;;19.30;9.70;;;;;;;-10.61;68.60;144720.84;5079173;28;20204;-67
2023/02/23 07:27:33;;;;;;;16.67;9.13;;;;;;;-10.40;66.76;144772.50;5075532;28;20615;-67
2023/02/23 07:29:58;;;;;;;17.33;9.70;;;;;;;-10.38;69.09;144777.50;5079934;28;20059;-67
2023/02/23 07:32:24;;;;;;;18.33;9.48;;;;;;;-10.49;67.64;144751.03;5079862;28;20025;-66
2023/02/23 07:34:50;;;;;;;15.48;8.85;;;;;;;-10.26;69.15;144807.69;5078957;28;20378;-65
2023/02/23 07:37:16;;;;;;;16.33;10.25;;;;;;;-10.12;66.40;144841.66;5076000;28;20351;-66
2023/02/23 07:39:41;;;;;;;18.20;9.07;;;;;;;-10.13;68.92;144837.91;5078991;28;20031;-66
2023/02/23 07:42:07;;;;;;;14.15;8.65;;;;;;;-10.07;67.49;144853.03;5077507;28;20024;-67
2023/02/23 07:44:33;;;;;;;16.50;8.73;;;;;;;-10.02;68.87;144864.38;5078980;28;20092;-66
2023/02/23 07:46:58;;;;;;;16.02;8.70;;;;;;;-9.88;66.53;144899.63;5059600;28;20072;-69
2023/02/23 07:49:24;;;;;;;15.80;9.27;;;;;;;-9.62;67.99;144963.94;5078030;28;20020;-65
2023/02/23 07:51:49;;;;;;;16.10;8.77;;;;;;;-9.60;66.34;144968.94;5078048;28;20342;-66
2023/02/23 07:54:15;;;;;;;12.98;8.43;;;;;;;-9.74;68.59;144934.91;5078296;28;20047;-67
2023/02/23 07:56:41;;;;;;;14.02;8.32;;;;;;;-9.44;67.23;145006.75;5079207;28;20517;-66
2023/02/23 07:59:06;;;;;;;14.32;8.93;;;;;;;-9.17;67.57;145073.56;5077792;28;20084;-66
2023/02/23 08:01:32;;;;;;;18.77;8.27;;;;;;;-9.22;65.59;145060.94;5077852;28;20088;-67
2023/02/23 08:03:58;;;;;;;13.77;8.52;;;;;;;-8.88;66.02;145144.16;5068479;28;20309;-66
2023/02/23 08:06:23;;;;;;;12.13;8.23;;;;;;;-8.66;65.54;145198.44;5075527;28;20070;-67
2023/02/23 08:08:49;;;;;;;13.30;7.93;;;;;;;-8.51;64.49;145236.28;5076137;28;20020;-66
2023/02/23 08:11:15;;;;;;;19.88;8.07;;;;;;;-8.27;64.82;145294.22;5076956;28;20028;-66
2023/02/23 08:13:40;;;;;;;13.88;8.68;;;;;;;-7.67;62.96;145440.66;5076082;28;20020;-67
2023/02/23 08:16:06;;;;;;;12.35;7.97;;;;;;;-7.68;62.37;145438.13;5059468;28;20032;-67
2023/02/23 08:18:32;;;;;;;14.20;8.18;;;;;;;-6.91;60.15;145626.31;5075401;28;20043;-68
2023/02/23 08:21:02;;;;;;;14.10;8.50;;;;;;;-6.51;60.39;145724.88;5078344;28;20024;-68
2023/02/23 08:23:32;;;;;;;11.68;7.65;;;;;;;-6.63;58.88;145697.06;5078349;28;20028;-66
2023/02/23 08:26:00;;;;;;;12.55;7.38;;;;;;;-6.51;58.26;145724.88;5078181;28;20303;-67
2023/02/23 08:28:26;;;;;;;15.60;7.65;;;;;;;-5.65;58.49;145936.00;5077470;28;20048;-66
2023/02/23 08:30:52;;;;;;;12.57;7.43;;;;;;;-5.93;57.38;145867.69;5057413;28;20044;-68
2023/02/23 08:33:18;;;;;;;11.77;6.60;;;;;;;-6.13;57.34;145819.72;5076773;28;20036;-67
2023/02/23 08:35:44;;;;;;;9.82;6.95;;;;;;;-5.72;57.87;145920.78;5076411;28;20245;-68
2023/02/23 08:38:09;;;;;;;10.35;6.75;;;;;;;-5.21;57.44;146044.81;5076031;28;20036;-68
2023/02/23 08:40:35;;;;;;;9.60;6.97;;;;;;;-5.27;54.49;146029.63;5076051;28;20036;-65
2023/02/23 08:43:00;;;;;;;12.57;7.93;;;;;;;-4.61;54.63;146191.63;5076448;28;20031;-66
2023/02/23 08:45:28;;;;;;;13.60;7.22;;;;;;;-4.26;54.02;146277.72;5076828;28;20028;-66
2023/02/23 08:47:54;;;;;;;12.80;7.32;;;;;;;-4.25;53.04;146280.28;5076423;28;20044;-66
2023/02/23 08:50:20;;;;;;;13.05;7.30;;;;;;;-4.22;53.41;146289.16;5077200;28;20500;-66
2023/02/23 08:52:46;;;;;;;14.40;7.88;;;;;;;-4.41;53.04;146242.28;5043347;28;20300;-67
2023/02/23 08:55:15;;;;;;;11.05;7.18;;;;;;;-4.09;52.90;146320.81;5076541;28;20019;-66
2023/02/23 08:57:41;;;;;;;10.18;6.68;;;;;;;-3.61;53.09;146437.38;5076866;28;20036;-67
2023/02/23 09:00:12;;;;;;;11.15;6.80;;;;;;;-3.37;50.14;146496.94;5077901;28;20036;-65
2023/02/23 09:02:39;;;;;;;;;;;;;;;-3.58;51.75;146444.97;5059421;28;20460;-66
2023/02/23 09:05:06;;;;;;;10.27;6.80;;;;;;;-3.17;50.97;146546.38;5077005;28;19958;-66
2023/02/23 09:07:31;;;;;;;10.10;7.07;;;;;;;-2.66;50.78;146673.19;5076862;28;20032;-66
2023/02/23 09:09:57;;;;;;;8.82;6.65;;;;;;;-2.35;49.15;146749.31;5059388;28;20062;-65
2023/02/23 09:12:23;;;;;;;10.25;6.93;;;;;;;-2.32;46.44;146755.66;5076009;28;20112;-67
2023/02/23 09:14:50;;;;;;;10.07;6.70;;;;;;;-1.94;48.05;146850.84;5078715;28;20032;-66
2023/02/23 09:17:17;;;;;;;10.18;6.47;;;;;;;-1.98;50.02;146839.38;5077000;28;20301;-67
2023/02/23 09:19:42;;;;;;;8.00;5.93;;;;;;;-1.88;45.28;146863.50;5076512;28;20036;-69
2023/02/23 09:22:08;;;;;;;8.07;6.22;;;;;;;-1.52;47.19;146952.38;5080304;28;20086;-67
2023/02/23 09:24:33;;;;;;;9.05;5.60;;;;;;;-2.16;45.27;146796.25;5078890;28;20096;-66
2023/02/23 09:27:00;;;;;;;8.40;5.25;;;;;;;-2.24;44.43;146775.94;5081564;28;20032;-66
2023/02/23 09:29:25;;;;;;;7.88;5.38;;;;;;;-2.13;46.37;146802.59;5061481;28;20332;-66
2023/02/23 09:31:51;;;;;;;7.88;5.22;;;;;;;-1.84;47.23;146874.94;5080407;28;20074;-67
2023/02/23 09:34:18;;;;;;;8.10;5.68;;;;;;;-1.48;47.40;146962.50;5080648;28;20336;-66
2023/02/23 09:36:44;;;;;;;8.43;5.75;;;;;;;-1.46;45.99;146968.88;5080480;28;20056;-66
2023/02/23 09:39:09;;;;;;;8.55;5.93;;;;;;;-1.56;46.29;146944.72;5080573;28;20047;-66
2023/02/23 09:42:00;;;;;;;9.32;6.10;;;;;;;-1.94;46.49;146850.84;5080502;28;20029;-66
2023/02/23 09:44:34;;;;;;;10.45;6.15;;;;;;;-2.34;46.85;146750.56;5080405;28;20051;-65
2023/02/23 09:47:21;;;;;;;10.57;7.13;;;;;;;-2.37;49.24;146744.22;5079454;28;20272;-68
2023/02/23 09:49:49;;;;;;;13.23;6.90;;;;;;;-3.02;48.00;146584.44;5077682;28;20041;-67
2023/02/23 09:52:19;;;;;;;12.30;6.43;;;;;;;-3.12;47.86;146559.09;5045301;28;20066;-67
2023/02/23 09:54:45;;;;;;;14.40;8.63;;;;;;;-3.70;49.28;146417.09;5072703;28;20037;-68
2023/02/23 09:57:15;;;;;;;12.43;7.93;;;;;;;-3.77;48.95;146399.34;5076360;28;20209;-66
2023/02/23 09:59:41;;;;;;;14.25;7.97;;;;;;;-3.88;51.08;146372.72;5079137;28;20052;-66
2023/02/23 10:02:50;;;;;;;13.13;8.45;;;;;;;-4.50;52.34;146219.50;5062150;28;20198;-67
2023/02/23 10:05:16;;;;;;;14.77;8.48;;;;;;;-4.63;52.58;146186.56;5078825;28;20247;-63
2023/02/23 10:08:01;;;;;;;13.02;8.38;;;;;;;-4.93;51.01;146113.13;5080149;28;20017;-65
2023/02/23 10:10:38;;;;;;;13.68;8.02;;;;;;;-4.89;52.01;146123.25;5075556;28;20093;-64
2023/02/23 10:13:18;;;;;;;10.55;6.80;;;;;;;-4.79;53.21;146147.31;5077372;28;20038;-64
2023/02/23 10:15:56;;;;;;;11.10;7.22;;;;;;;-4.73;51.02;146162.50;5079574;28;20062;-66
2023/02/23 10:18:36;;;;;;;11.30;7.28;;;;;;;-4.81;51.77;146143.53;5079749;28;20102;-66
2023/02/23 10:21:06;;;;;;;9.75;7.38;;;;;;;-4.79;52.32;146148.56;5079603;28;20017;-65
2023/02/23 10:23:55;;;;;;;11.88;7.75;;;;;;;-4.79;52.20;146148.56;5080039;28;20083;-64
2023/02/23 10:26:24;;;;;;;13.35;7.65;;;;;;;-4.83;53.27;146138.47;5079128;28;20034;-65
2023/02/23 10:28:53;;;;;;;14.45;8.57;;;;;;;-4.86;53.62;146132.13;5076965;28;20033;-64
2023/02/23 10:31:33;;;;;;;14.77;8.40;;;;;;;-4.88;52.41;146127.06;5078369;28;20344;-65
2023/02/23 10:34:04;;;;;;;11.15;7.90;;;;;;;-5.40;54.48;145999.25;5077406;28;20285;-65
2023/02/23 10:36:36;;;;;;;16.05;8.70;;;;;;;-5.15;54.22;146059.97;5074707;28;20033;-64
2023/02/23 10:39:06;;;;;;;12.90;8.32;;;;;;;-5.04;55.19;146087.81;5080264;28;20566;-64
2023/02/23 10:41:33;;;;;;;13.10;7.95;;;;;;;-4.98;53.92;146100.50;5077890;28;20039;-63
2023/02/23 10:43:58;;;;;;;14.30;8.60;;;;;;;-4.89;53.22;146123.25;5080148;28;20024;-64
2023/02/23 10:46:34;;;;;;;14.38;8.57;;;;;;;-4.87;52.63;146128.34;5078753;28;20225;-63
2023/02/23 10:49:00;;;;;;;13.10;7.80;;;;;;;-5.13;54.07;146065.06;5080063;28;20229;-63
2023/02/23 10:51:31;;;;;;;13.60;8.82;;;;;;;-5.08;55.09;146077.69;5079855;28;20396;-63
2023/02/23 10:53:56;;;;;;;15.07;8.50;;;;;;;-5.31;54.53;146019.50;5078906;28;20089;-62
2023/02/23 10:56:23;;;;;;;13.88;8.20;;;;;;;-5.41;54.05;145995.47;5079304;28;20557;-63
2023/02/23 10:58:54;;;;;;;13.68;8.20;;;;;;;-5.34;55.52;146011.88;5079593;28;20092;-64
2023/02/23 11:01:43;;;;;;;13.93;8.55;;;;;;;-5.22;55.76;146043.50;5077738;28;20043;-63
2023/02/23 11:04:21;;;;;;;15.20;8.85;;;;;;;-5.26;54.62;146032.13;5079318;28;20039;-63
2023/02/23 11:06:48;;;;;;;14.98;8.13;;;;;;;-5.31;54.67;146020.75;5079147;28;20224;-62
2023/02/23 11:09:26;;;;;;;13.57;8.85;;;;;;;-5.09;55.63;146075.19;5061052;28;20024;-64
2023/02/23 11:12:24;;;;;;;12.23;8.57;;;;;;;-4.96;54.06;146105.53;5080315;28;20101;-63
2023/02/23 11:14:51;;;;;;;13.88;8.77;;;;;;;-5.05;54.72;146085.28;5050515;28;20032;-62
2023/02/23 11:17:25;;;;;;;11.80;7.90;;;;;;;-5.06;53.82;146082.78;5079532;28;20036;-62
2023/02/23 11:19:57;;;;;;;12.07;8.13;;;;;;;-4.95;52.65;146109.31;5079668;28;20024;-63
2023/02/23 11:22:25;;;;;;;14.45;8.68;;;;;;;-4.95;55.73;146109.31;5080629;28;20051;-64
2023/02/23 11:24:52;;;;;;;13.35;7.80;;;;;;;-5.16;54.31;146056.19;5077602;28;20126;-63
2023/02/23 11:27:24;;;;;;;11.55;7.53;;;;;;;-5.20;54.96;146047.34;5076743;28;20040;-64
2023/02/23 11:29:53;;;;;;;11.77;7.15;;;;;;;-5.08;53.37;146077.69;5077435;28;20155;-64
2023/02/23 11:32:31;;;;;;;11.68;7.13;;;;;;;-4.80;53.81;146146.06;5076950;28;20232;-64
2023/02/23 11:35:15;;;;;;;11.98;7.70;;;;;;;-4.80;52.78;146144.78;5073683;28;20205;-63
2023/02/23 11:37:41;;;;;;;14.07;7.93;;;;;;;-5.00;52.48;146096.69;5061338;28;20028;-62
2023/02/23 11:40:26;;;;;;;13.93;7.80;;;;;;;-4.80;52.29;146144.78;5079424;28;20259;-63
2023/02/23 11:43:03;;;;;;;17.95;8.75;;;;;;;-4.86;50.52;146132.13;5076046;28;20107;-63
2023/02/23 11:45:32;;;;;;;11.05;7.22;;;;;;;-5.09;53.29;146075.19;5077312;28;20017;-63
2023/02/23 11:48:01;;;;;;;11.68;6.28;;;;;;;-5.13;51.37;146065.06;5078079;28;20032;-64
2023/02/23 11:50:33;;;;;;;10.45;6.70;;;;;;;-5.16;53.67;146056.19;5061698;28;20331;-63
2023/02/23 11:53:15;;;;;;;10.88;7.13;;;;;;;-5.44;51.70;145987.88;5075772;28;20029;-63
2023/02/23 11:55:48;;;;;;;8.88;6.40;;;;;;;-5.07;51.40;146079.00;5078878;28;20017;-63
2023/02/23 11:58:31;;;;;;;11.23;7.07;;;;;;;-5.09;50.05;146075.19;5063843;28;20028;-63
2023/02/23 12:01:03;;;;;;;9.65;6.22;;;;;;;-5.05;51.73;146084.03;5078701;28;20070;-63
2023/02/23 12:03:31;;;;;;;;;;;;;;;-4.89;50.28;146123.25;5060966;28;20028;-64
2023/02/23 12:05:58;;;;;;;11.80;7.00;;;;;;;-4.87;52.60;146129.59;5079176;28;19986;-64
2023/02/23 12:08:48;;;;;;;12.60;6.32;;;;;;;-5.08;48.66;146077.69;5074339;28;20035;-63
2023/02/23 12:11:21;;;;;;;9.02;5.95;;;;;;;-5.16;50.43;146056.19;5076744;28;20107;-64
2023/02/23 12:13:57;;;;;;;8.10;5.65;;;;;;;-5.48;50.25;145979.00;5076362;28;20245;-64
2023/02/23 12:16:28;;;;;;;12.38;6.45;;;;;;;-5.25;50.74;146034.69;5077519;28;20024;-63
2023/02/23 12:19:18;;;;;;;13.80;6.73;;;;;;;-5.30;49.74;146022.00;5078858;28;20300;-63
2023/02/23 12:21:51;;;;;;;11.95;6.68;;;;;;;-5.22;50.46;146042.25;5077695;28;20470;-65
2023/02/23 12:24:27;;;;;;;11.20;6.25;;;;;;;-5.27;51.18;146030.88;5077563;28;20029;-64
2023/02/23 12:27:11;;;;;;;11.82;6.70;;;;;;;-5.05;50.73;146085.28;5075772;28;20012;-63
2023/02/23 12:29:47;;;;;;;12.98;7.97;;;;;;;-5.11;50.55;146070.09;5072940;28;20193;-63
2023/02/23 12:32:48;;;;;;;11.65;6.93;;;;;;;-5.06;51.80;146081.47;5059500;28;20259;-63
2023/02/23 12:35:21;;;;;;;13.63;7.72;;;;;;;-5.21;50.73;146044.81;5062249;28;20078;-63
2023/02/23 12:37:57;;;;;;;15.45;6.95;;;;;;;-5.13;50.47;146065.06;5075228;28;20020;-64
2023/02/23 12:40:27;;;;;;;9.98;6.65;;;;;;;-4.98;51.37;146100.50;5071750;28;20040;-64
2023/02/23 12:43:01;;;;;;;11.18;6.75;;;;;;;-4.89;50.91;146124.56;5078077;28;20114;-64
2023/02/23 12:45:51;;;;;;;13.70;6.63;;;;;;;-4.90;51.00;146120.75;5073622;28;20024;-64